I19 weather

Greene County-Lewis A. Jackson Regional Airport
Dayton, Ohio, United States

Public forecast

Using degrees Fahrenheit for public forecast. Weather courtesy of forecast.io.

Closest aviation weather report (METAR) to Greene County-Lewis A. Jackson Regional Airport

Closest report is Wright-Patterson Air Force Base, 8.5 nm (15.7 km) NNW. Retrieved 2019/10/16 19:56 UTC (48 minutes ago):

KFFO 161956Z AUTO 28018G24KT 10SM OVC028 10/03 A2984 RMK AO2 SLP108 T00970034

Closest aviation forecast (TAF) to Greene County-Lewis A. Jackson Regional Airport

Closest forecast is Wright-Patterson Air Force Base, 8.5 nm (15.7 km) NNW. Retrieved 2019/10/16 19:14 UTC (1 hour ago):

TAF KFFO 161900Z 1619/1801 28015G25KT 9999 BKN025 OVC045 620503 QNH2982INS BECMG 1700/1701 30012KT 9999 BKN020 OVC040 620453 QNH2986INS BECMG 1714/1715 33012G18KT 9999 BKN030 BKN050 620402 QNH2996INS TX10/1621Z TN04/1711Z